Time;durP1;ratioP1;P1;durP2;ratioP2;P2;SDS_P1;SDS_P2;PMS_P1;PMS_P2;Temp;Humidity;BMP_temperature;BMP_pressure;BME280_temperature;BME280_humidity;BME280_pressure;Samples;Min_cycle;Max_cycle;Signal;HPM_P1;HPM_P2
2022/10/08 00:00:05;;;;;;;;;;;;;;;21.84;58.61;101158.72;5006747;28;3259;-58
2022/10/08 00:02:36;;;;;;;;;;;;;;;21.83;58.75;101151.47;5015958;28;2629;-58
2022/10/08 00:05:03;;;;;;;;;;;;;;;21.83;58.95;101151.47;5014526;28;2943;-58
2022/10/08 00:07:29;;;;;;;;;;;;;;;21.82;58.61;101155.75;5011523;28;2863;-58
2022/10/08 00:09:55;;;;;;;;;;;;;;;21.83;58.48;101145.69;5005293;28;2994;-58
2022/10/08 00:12:22;;;;;;;;;;;;;;;21.82;58.40;101156.50;5015289;28;3509;-59
2022/10/08 00:14:48;;;;;;;;;;;;;;;21.82;58.60;101144.22;5012437;28;2813;-58
2022/10/08 00:17:14;;;;;;;;;;;;;;;21.83;58.30;101151.47;5008052;28;2935;-58
2022/10/08 00:19:44;;;;;;;;;;;;;;;21.79;58.42;101151.31;5009030;28;3423;-58
2022/10/08 00:22:10;;;;;;;;;;;;;;;21.80;58.41;101149.91;5017953;28;2725;-58
2022/10/08 00:24:38;;;;;;;;;;;;;;;21.78;58.69;101144.78;5013612;28;2822;-58
2022/10/08 00:27:05;;;;;;;;;;;;;;;21.78;58.65;101149.81;5014366;28;2625;-58
2022/10/08 00:29:32;;;;;;;;;;;;;;;21.79;58.46;101157.06;5014441;28;2525;-58
2022/10/08 00:31:58;;;;;;;;;;;;;;;21.77;58.70;101151.22;5012880;28;3060;-58
2022/10/08 00:34:25;;;;;;;;;;;;;;;21.76;58.47;101147.56;5010853;28;2841;-58
2022/10/08 00:36:52;;;;;;;;;;;;;;;21.77;58.54;101159.84;5016761;28;2871;-57
2022/10/08 00:39:18;;;;;;;;;;;;;;;21.74;58.80;101150.38;5007229;28;2903;-57
2022/10/08 00:41:46;;;;;;;;;;;;;;;21.75;58.36;101152.59;5014370;28;2705;-56
2022/10/08 00:44:31;;;;;;;;;;;;;;;21.74;58.58;101156.88;5015617;28;2711;-57
2022/10/08 00:46:57;;;;;;;;;;;;;;;21.73;58.40;101143.84;5011980;28;2698;-57
2022/10/08 00:49:24;;;;;;;;;;;;;;;21.75;58.43;101143.19;5015239;28;2883;-57
2022/10/08 00:51:51;;;;;;;;;;;;;;;21.75;57.99;101141.06;5014690;28;2341;-57
2022/10/08 00:54:18;;;;;;;;;;;;;;;21.73;58.44;101135.19;5015256;28;2523;-57
2022/10/08 00:56:45;;;;;;;;;;;;;;;21.73;58.44;101137.34;5029360;28;2332;-57
2022/10/08 00:59:11;;;;;;;;;;;;;;;21.73;58.32;101129.44;5014128;28;2778;-58
2022/10/08 01:01:41;;;;;;;;;;;;;;;21.73;58.40;101123.66;5004536;28;2871;-58
2022/10/08 01:04:08;;;;;;;;;;;;;;;21.72;58.30;101130.84;5016171;28;2869;-57
2022/10/08 01:06:41;;;;;;;;;;;;;;;21.71;58.54;101128.59;5027386;28;2830;-57
2022/10/08 01:09:22;;;;;;;;;;;;;;;21.71;58.61;101134.38;5010802;28;2887;-58
2022/10/08 01:12:11;;;;;;;;;;;;;;;21.71;58.15;101129.34;5017420;28;2883;-57
2022/10/08 01:14:40;;;;;;;;;;;;;;;21.68;58.51;101130.66;5010229;28;2918;-57
2022/10/08 01:17:16;;;;;;;;;;;;;;;21.70;58.45;101124.97;5027518;28;2784;-58
2022/10/08 01:19:46;;;;;;;;;;;;;;;21.70;58.63;101119.22;5003108;28;3083;-57
2022/10/08 01:22:39;;;;;;;;;;;;;;;21.68;58.84;101113.38;5014087;28;2683;-57
2022/10/08 01:28:12;;;;;;;;;;;;;;;21.69;58.79;101116.97;5011352;28;2847;-58
2022/10/08 01:30:39;;;;;;;;;;;;;;;21.69;58.45;101126.38;5006082;28;2895;-58
2022/10/08 01:33:11;;;;;;;;;;;;;;;21.70;58.05;101115.59;5010493;28;2986;-57
2022/10/08 01:35:39;;;;;;;;;;;;;;;21.69;58.13;101114.88;5017537;28;3236;-58
2022/10/08 01:38:05;;;;;;;;;;;;;;;21.67;58.15;101108.25;5016413;28;1840;-57
2022/10/08 01:40:35;;;;;;;;;;;;;;;21.66;58.59;101110.38;5007300;28;2880;-57
2022/10/08 01:43:03;;;;;;;;;;;;;;;21.66;57.82;101104.63;5015600;28;2663;-57
2022/10/08 01:45:31;;;;;;;;;;;;;;;21.68;58.26;101110.47;5012168;28;2529;-58
2022/10/08 01:47:58;;;;;;;;;;;;;;;21.67;58.09;101114.78;5013961;28;2847;-57
2022/10/08 01:50:27;;;;;;;;;;;;;;;21.68;58.22;101116.25;5013898;28;2571;-58
2022/10/08 01:52:54;;;;;;;;;;;;;;;21.64;58.55;101100.91;5039466;28;2904;-58
2022/10/08 01:55:46;;;;;;;;;;;;;;;21.65;58.06;101091.63;5016435;28;3256;-58
2022/10/08 01:58:33;;;;;;;;;;;;;;;21.65;58.10;101091.63;5016035;28;2868;-57
2022/10/08 02:01:01;;;;;;;;;;;;;;;21.65;58.09;101096.66;5005580;28;2947;-57
2022/10/08 02:03:28;;;;;;;;;;;;;;;21.64;58.55;101089.38;5024932;28;2694;-57
2022/10/08 02:05:54;;;;;;;;;;;;;;;21.62;58.34;101092.16;5010781;28;2771;-57
2022/10/08 02:08:21;;;;;;;;;;;;;;;21.63;58.53;101082.16;5008578;28;2906;-57
2022/10/08 02:10:47;;;;;;;;;;;;;;;21.62;58.40;101081.38;5012143;28;2894;-57
2022/10/08 02:13:14;;;;;;;;;;;;;;;21.61;58.58;101067.63;5015896;28;2578;-58
2022/10/08 02:15:40;;;;;;;;;;;;;;;21.61;58.22;101076.28;5013476;28;2911;-57
2022/10/08 02:18:14;;;;;;;;;;;;;;;21.61;58.40;101077.03;5012996;28;2806;-57
2022/10/08 02:20:46;;;;;;;;;;;;;;;21.62;58.09;101075.63;5012008;28;2824;-57
2022/10/08 02:23:14;;;;;;;;;;;;;;;21.61;58.14;101077.03;5029805;28;2657;-57
2022/10/08 02:25:54;;;;;;;;;;;;;;;21.60;57.91;101072.66;5013743;28;2653;-57
2022/10/08 02:28:30;;;;;;;;;;;;;;;21.61;58.09;101071.25;5013195;28;2926;-57
2022/10/08 02:31:07;;;;;;;;;;;;;;;21.59;58.30;101071.16;5010826;28;3021;-57
2022/10/08 02:33:38;;;;;;;;;;;;;;;21.59;58.31;101070.44;5018159;28;2536;-57
2022/10/08 02:36:05;;;;;;;;;;;;;;;21.57;58.37;101073.97;5013837;28;2790;-57
2022/10/08 02:38:32;;;;;;;;;;;;;;;21.61;58.30;101077.03;5018312;28;2954;-57
2022/10/08 02:40:59;;;;;;;;;;;;;;;21.68;57.82;101073.00;5028829;28;3052;-58
2022/10/08 02:43:26;;;;;;;;;;;;;;;21.72;57.98;101081.84;5028724;28;3392;-57
2022/10/08 02:45:54;;;;;;;;;;;;;;;21.73;58.01;101085.47;5044424;28;2980;-57
2022/10/08 02:48:22;;;;;;;;;;;;;;;21.73;58.22;101080.44;5009874;28;2815;-58
2022/10/08 02:50:49;;;;;;;;;;;;;;;21.72;58.37;101073.19;5011747;28;2874;-58
2022/10/08 02:53:17;;;;;;;;;;;;;;;21.77;57.88;101079.16;5013825;28;2637;-57
2022/10/08 02:55:44;;;;;;;;;;;;;;;21.76;58.00;101078.38;5009903;28;2856;-57
2022/10/08 02:58:10;;;;;;;;;;;;;;;21.78;57.97;101080.63;5024971;28;2603;-57
2022/10/08 03:00:48;;;;;;;;;;;;;;;21.78;58.18;101087.13;5028168;28;3048;-57
2022/10/08 03:03:14;;;;;;;;;;;;;;;21.77;58.28;101084.91;5023901;28;2914;-58
2022/10/08 03:05:41;;;;;;;;;;;;;;;21.76;57.87;101078.38;5015838;28;2733;-57
2022/10/08 03:08:07;;;;;;;;;;;;;;;21.78;58.35;101083.50;5010471;28;2805;-58
2022/10/08 03:10:34;;;;;;;;;;;;;;;21.75;58.35;101083.41;5011316;28;2665;-58
2022/10/08 03:13:00;;;;;;;;;;;;;;;21.78;58.20;101092.16;5006292;28;2878;-58
2022/10/08 03:15:27;;;;;;;;;;;;;;;21.76;58.16;101087.03;5014124;28;2907;-57
2022/10/08 03:17:53;;;;;;;;;;;;;;;21.78;58.22;101090.00;5007113;28;2789;-57
2022/10/08 03:20:19;;;;;;;;;;;;;;;21.81;57.98;101090.88;5011565;28;2897;-58
2022/10/08 03:22:46;;;;;;;;;;;;;;;21.82;58.00;101089.44;5012970;28;2804;-58
2022/10/08 03:25:13;;;;;;;;;;;;;;;21.86;57.99;101090.38;5005029;28;2883;-58
2022/10/08 03:27:39;;;;;;;;;;;;;;;21.82;58.02;101089.44;5013645;28;2450;-58
2022/10/08 03:30:05;;;;;;;;;;;;;;;21.84;57.96;101095.31;5007897;28;2885;-57
2022/10/08 03:32:32;;;;;;;;;;;;;;;21.86;58.01;101098.28;5003550;28;2734;-57
2022/10/08 03:34:58;;;;;;;;;;;;;;;21.83;58.11;101088.81;5007736;28;2873;-57
2022/10/08 03:37:24;;;;;;;;;;;;;;;21.82;58.17;101093.06;5010042;28;2805;-57
2022/10/08 03:39:51;;;;;;;;;;;;;;;21.82;58.14;101089.44;5014447;28;2763;-57
2022/10/08 03:42:17;;;;;;;;;;;;;;;21.82;58.29;101089.44;5008610;28;3222;-57
2022/10/08 03:44:43;;;;;;;;;;;;;;;21.81;58.24;101082.22;5007124;28;2949;-58
2022/10/08 03:47:10;;;;;;;;;;;;;;;21.80;58.14;101089.34;5010663;28;2928;-57
2022/10/08 03:49:36;;;;;;;;;;;;;;;21.79;58.32;101082.13;5016369;28;2940;-58
2022/10/08 03:52:02;;;;;;;;;;;;;;;21.78;58.38;101084.25;5014406;28;3280;-58
2022/10/08 03:54:29;;;;;;;;;;;;;;;21.79;58.25;101082.13;5016141;28;2850;-58
2022/10/08 03:56:55;;;;;;;;;;;;;;;21.83;58.24;101076.50;5010174;28;2978;-58
2022/10/08 03:59:21;;;;;;;;;;;;;;;21.82;57.97;101070.00;5013000;28;2871;-57
2022/10/08 04:01:48;;;;;;;;;;;;;;;21.82;58.18;101075.78;5015408;28;2752;-57
2022/10/08 04:04:14;;;;;;;;;;;;;;;21.88;58.03;101072.44;5011707;28;2947;-57
2022/10/08 04:06:40;;;;;;;;;;;;;;;21.87;58.14;101082.47;5011698;28;2906;-56
2022/10/08 04:09:08;;;;;;;;;;;;;;;21.88;58.17;101072.44;5013276;28;2842;-57
2022/10/08 04:11:34;;;;;;;;;;;;;;;21.89;57.80;101071.75;5015739;28;2687;-57
2022/10/08 04:14:00;;;;;;;;;;;;;;;21.85;58.27;101079.47;5013440;28;3035;-57
2022/10/08 04:16:27;;;;;;;;;;;;;;;21.86;58.08;101070.19;5016318;28;2939;-57
2022/10/08 04:18:53;;;;;;;;;;;;;;;21.86;58.01;101081.72;5014458;28;2954;-57
2022/10/08 04:21:19;;;;;;;;;;;;;;;21.84;58.06;101078.00;5015252;28;2820;-57
2022/10/08 04:23:45;;;;;;;;;;;;;;;21.84;58.21;101066.47;5009070;28;2611;-58
2022/10/08 04:26:12;;;;;;;;;;;;;;;21.82;58.30;101081.53;5013404;28;2784;-57
2022/10/08 04:28:39;;;;;;;;;;;;;;;21.82;58.32;101084.44;5016496;28;3049;-57
2022/10/08 04:31:06;;;;;;;;;;;;;;;21.83;58.33;101088.03;5010792;28;3104;-57
2022/10/08 04:33:33;;;;;;;;;;;;;;;21.83;58.16;101082.28;5010621;28;2912;-58
2022/10/08 04:35:59;;;;;;;;;;;;;;;21.86;57.87;101084.59;5014637;28;2867;-57
2022/10/08 04:38:26;;;;;;;;;;;;;;;21.88;57.93;101086.84;5016316;28;3087;-58
2022/10/08 04:41:11;;;;;;;;;;;;;;;21.88;58.01;101070.28;5011241;28;2951;-58
2022/10/08 04:43:38;;;;;;;;;;;;;;;21.91;58.09;101074.00;5016348;28;2903;-58
2022/10/08 04:46:04;;;;;;;;;;;;;;;21.91;57.99;101076.88;5011055;28;2804;-57
2022/10/08 04:48:31;;;;;;;;;;;;;;;21.94;57.83;101081.31;5016677;28;2755;-58
2022/10/08 04:50:57;;;;;;;;;;;;;;;21.89;58.11;101079.66;5014318;28;2806;-57
2022/10/08 04:53:26;;;;;;;;;;;;;;;21.89;58.27;101079.66;5013640;28;2848;-58
2022/10/08 04:55:53;;;;;;;;;;;;;;;21.89;57.89;101068.13;5005267;28;2855;-58
2022/10/08 04:58:19;;;;;;;;;;;;;;;21.90;57.85;101075.41;5012136;28;2716;-57
2022/10/08 05:00:46;;;;;;;;;;;;;;;21.89;58.22;101080.41;5015971;28;2919;-58
2022/10/08 05:03:12;;;;;;;;;;;;;;;21.89;58.23;101079.66;5006037;28;2809;-57
2022/10/08 05:05:42;;;;;;;;;;;;;;;21.89;58.00;101085.44;5013257;28;2786;-57
2022/10/08 05:08:08;;;;;;;;;;;;;;;21.87;58.28;101088.22;5011458;28;2799;-58
2022/10/08 05:10:35;;;;;;;;;;;;;;;21.84;58.33;101089.53;5012621;28;2871;-58
2022/10/08 05:13:01;;;;;;;;;;;;;;;21.85;58.35;101085.25;5009812;28;2927;-57
2022/10/08 05:15:27;;;;;;;;;;;;;;;21.85;58.29;101085.25;5012174;28;3299;-58
2022/10/08 05:17:53;;;;;;;;;;;;;;;21.87;58.36;101088.97;5007462;28;2966;-58
2022/10/08 05:20:20;;;;;;;;;;;;;;;21.87;58.15;101082.47;5004610;28;2912;-58
2022/10/08 05:22:46;;;;;;;;;;;;;;;21.89;58.01;101089.06;5008653;28;2979;-58
2022/10/08 05:25:13;;;;;;;;;;;;;;;21.90;58.06;101086.94;5012145;28;2951;-57
2022/10/08 05:27:39;;;;;;;;;;;;;;;21.92;58.10;101078.34;5014472;28;3043;-58
2022/10/08 05:30:06;;;;;;;;;;;;;;;21.91;58.04;101094.19;5012634;28;3430;-57
2022/10/08 05:32:32;;;;;;;;;;;;;;;21.92;58.19;101090.66;5008962;28;3284;-58
2022/10/08 05:34:59;;;;;;;;;;;;;;;21.90;58.23;101089.81;5015157;28;2668;-58
2022/10/08 05:37:25;;;;;;;;;;;;;;;21.91;58.08;101097.06;5005766;28;2725;-58
2022/10/08 05:39:51;;;;;;;;;;;;;;;21.90;58.23;101086.94;5013514;28;2891;-58
2022/10/08 05:42:18;;;;;;;;;;;;;;;21.89;57.90;101085.44;5009778;28;2831;-57
2022/10/08 05:44:44;;;;;;;;;;;;;;;21.90;58.19;101086.94;5012356;28;2947;-58
2022/10/08 05:47:10;;;;;;;;;;;;;;;21.91;58.12;101092.03;5008214;28;3060;-58
2022/10/08 05:49:37;;;;;;;;;;;;;;;21.90;58.13;101079.03;5013026;28;3240;-56
2022/10/08 05:52:03;;;;;;;;;;;;;;;21.91;58.05;101091.28;5014689;28;2732;-58
2022/10/08 05:54:29;;;;;;;;;;;;;;;21.81;57.18;101090.88;5012667;28;2963;-59
2022/10/08 05:56:56;;;;;;;;;;;;;;;21.75;56.83;101100.69;5010796;28;2827;-59
2022/10/08 05:59:22;;;;;;;;;;;;;;;21.79;57.49;101099.41;5013811;28;2823;-59
2022/10/08 06:01:49;;;;;;;;;;;;;;;21.83;57.14;101099.56;5005663;28;3166;-59
2022/10/08 06:04:17;;;;;;;;;;;;;;;21.74;57.04;101102.13;5006786;28;2756;-59
2022/10/08 06:06:43;;;;;;;;;;;;;;;21.63;56.09;101096.56;5006980;28;3401;-58
2022/10/08 06:09:11;;;;;;;;;;;;;;;21.72;56.26;101101.28;5011307;28;2726;-59
2022/10/08 06:11:37;;;;;;;;;;;;;;;21.80;56.00;101098.00;5014071;28;1765;-58
2022/10/08 06:14:05;;;;;;;;;;;;;;;21.78;55.70;101097.91;5021807;28;2654;-59
2022/10/08 06:16:31;;;;;;;;;;;;;;;21.79;56.34;101102.31;5006533;28;2845;-69
2022/10/08 06:18:58;;;;;;;;;;;;;;;21.84;56.44;101101.06;5011567;28;3127;-63
2022/10/08 06:21:25;;;;;;;;;;;;;;;21.81;56.10;101105.28;5008701;28;2899;-63
2022/10/08 06:23:55;;;;;;;;;;;;;;;21.78;56.10;101109.44;5010519;28;2785;-62
2022/10/08 06:26:22;;;;;;;;;;;;;;;21.78;56.12;101110.19;5016166;28;1779;-62
2022/10/08 06:28:48;;;;;;;;;;;;;;;21.80;56.36;101113.16;5011402;28;2908;-63
2022/10/08 06:31:15;;;;;;;;;;;;;;;21.83;56.10;101116.88;5011635;28;2968;-62
2022/10/08 06:33:41;;;;;;;;;;;;;;;21.82;56.11;101112.50;5008009;28;3083;-62
2022/10/08 06:36:17;;;;;;;;;;;;;;;21.78;56.27;101120.97;5005947;28;2513;-63
2022/10/08 06:38:53;;;;;;;;;;;;;;;21.77;55.95;101119.50;5004701;28;2818;-62
2022/10/08 06:41:19;;;;;;;;;;;;;;;21.64;56.00;101123.97;5009676;28;3341;-62
2022/10/08 06:43:46;;;;;;;;;;;;;;;21.70;55.91;101122.09;5008612;28;2919;-64
2022/10/08 06:46:12;;;;;;;;;;;;;;;21.72;55.93;101113.56;5011481;28;2903;-64
2022/10/08 06:48:39;;;;;;;;;;;;;;;21.72;55.73;101113.56;5009938;28;2915;-64
2022/10/08 06:51:06;;;;;;;;;;;;;;;21.73;55.45;101115.03;5007864;28;3382;-65
2022/10/08 06:53:32;;;;;;;;;;;;;;;21.59;55.25;101119.41;5013605;28;2826;-62
2022/10/08 06:55:59;;;;;;;;;;;;;;;21.68;55.13;101119.13;5005078;28;2869;-65
2022/10/08 06:58:26;;;;;;;;;;;;;;;21.72;55.17;101112.81;5006554;28;2974;-65
2022/10/08 07:01:01;;;;;;;;;;;;;;;21.72;55.01;101119.31;5009262;28;2930;-65
2022/10/08 07:03:27;;;;;;;;;;;;;;;21.77;54.86;101128.16;5011228;28;2842;-64
2022/10/08 07:05:54;;;;;;;;;;;;;;;21.74;55.35;101130.94;5012701;28;2778;-64
2022/10/08 07:08:20;;;;;;;;;;;;;;;21.76;55.46;101136.03;5012918;28;2751;-64
2022/10/08 07:10:48;;;;;;;;;;;;;;;21.77;55.24;101136.78;5016242;28;2760;-65
2022/10/08 07:13:15;;;;;;;;;;;;;;;21.78;55.66;101141.88;5013904;28;2991;-64
2022/10/08 07:15:41;;;;;;;;;;;;;;;21.79;55.63;101134.00;5011224;28;2903;-64
2022/10/08 07:18:10;;;;;;;;;;;;;;;21.80;55.54;101141.25;5003543;28;3058;-64
2022/10/08 07:20:37;;;;;;;;;;;;;;;21.79;55.67;101151.31;5008189;28;2991;-64
2022/10/08 07:23:03;;;;;;;;;;;;;;;21.78;55.65;101155.56;5016314;28;3177;-64
2022/10/08 07:25:30;;;;;;;;;;;;;;;21.80;56.03;101141.25;5012670;28;3062;-63
2022/10/08 07:27:56;;;;;;;;;;;;;;;21.81;55.94;101148.50;5012783;28;2741;-64
2022/10/08 07:30:22;;;;;;;;;;;;;;;21.87;56.03;101157.41;5016328;28;2818;-60
2022/10/08 07:32:51;;;;;;;;;;;;;;;21.87;55.89;101149.50;5016526;28;2957;-59
2022/10/08 07:35:17;;;;;;;;;;;;;;;21.55;53.98;101151.66;5014440;28;2976;-62
2022/10/08 07:37:57;;;;;;;;;;;;;;;21.23;52.72;101147.97;5017511;28;2849;-63
2022/10/08 07:40:36;;;;;;;;;;;;;;;21.41;52.48;101159.66;5008167;28;2215;-63
2022/10/08 07:43:03;;;;;;;;;;;;;;;21.58;52.66;101149.63;5016015;28;2890;-63
2022/10/08 07:45:30;;;;;;;;;;;;;;;21.63;54.84;101157.81;5017928;28;2170;-63
2022/10/08 07:47:56;;;;;;;;;;;;;;;21.67;54.98;101158.00;5017873;28;2950;-62
2022/10/08 07:50:23;;;;;;;;;;;;;;;21.70;55.34;101156.69;5013250;28;3037;-63
2022/10/08 07:52:49;;;;;;;;;;;;;;;21.71;55.43;101161.03;5012873;28;2973;-63
2022/10/08 07:55:15;;;;;;;;;;;;;;;21.72;55.66;101158.94;5019350;28;1604;-63
2022/10/08 07:57:42;;;;;;;;;;;;;;;21.75;55.58;101169.88;5013942;28;2804;-63
2022/10/08 08:00:08;;;;;;;;;;;;;;;21.73;55.82;101161.13;5019246;28;1562;-63
2022/10/08 08:02:37;;;;;;;;;;;;;;;21.72;55.93;101171.19;5013328;28;2859;-63
2022/10/08 08:05:04;;;;;;;;;;;;;;;21.74;56.00;101174.19;5018911;28;3138;-63
2022/10/08 08:07:30;;;;;;;;;;;;;;;21.75;56.10;101174.91;5018393;28;2483;-63
2022/10/08 08:09:56;;;;;;;;;;;;;;;21.74;56.09;101179.19;5013789;28;2910;-63
2022/10/08 08:12:23;;;;;;;;;;;;;;;21.75;56.26;101175.66;5014241;28;2994;-63
2022/10/08 08:14:49;;;;;;;;;;;;;;;21.75;56.29;101174.91;5018846;28;1602;-63
2022/10/08 08:17:15;;;;;;;;;;;;;;;21.74;56.00;101177.06;5015590;28;2950;-63
2022/10/08 08:19:42;;;;;;;;;;;;;;;21.74;56.19;101173.44;5011174;28;3047;-63
2022/10/08 08:22:08;;;;;;;;;;;;;;;21.72;56.28;101168.31;5016808;28;2911;-63
2022/10/08 08:24:34;;;;;;;;;;;;;;;21.72;56.50;101174.06;5016143;28;2755;-63
2022/10/08 08:27:01;;;;;;;;;;;;;;;21.75;56.21;101186.44;5011156;28;2726;-63
2022/10/08 08:29:27;;;;;;;;;;;;;;;21.73;56.38;101178.44;5011805;28;3007;-63
2022/10/08 08:31:53;;;;;;;;;;;;;;;21.77;56.55;101177.16;5014893;28;3128;-63
2022/10/08 08:34:20;;;;;;;;;;;;;;;21.74;56.49;101171.28;5012210;28;2983;-63
2022/10/08 08:36:48;;;;;;;;;;;;;;;21.73;56.66;101172.66;5012335;28;2902;-63
2022/10/08 08:39:16;;;;;;;;;;;;;;;21.74;56.79;101168.41;5017118;28;1725;-63
2022/10/08 08:41:59;;;;;;;;;;;;;;;21.75;56.52;101178.53;5017560;28;2896;-63
2022/10/08 08:44:28;;;;;;;;;;;;;;;21.77;56.75;101174.28;5016863;28;1695;-63
2022/10/08 08:47:03;;;;;;;;;;;;;;;21.76;56.68;101190.78;5018035;28;2701;-63
2022/10/08 08:49:30;;;;;;;;;;;;;;;21.75;56.91;101180.69;5007359;28;3038;-63
2022/10/08 08:52:00;;;;;;;;;;;;;;;21.74;56.90;101191.47;5016969;28;2855;-63
2022/10/08 08:54:26;;;;;;;;;;;;;;;21.75;56.84;101192.19;5015875;28;2587;-63
2022/10/08 08:56:52;;;;;;;;;;;;;;;21.75;56.97;101195.81;5011375;28;2852;-63
2022/10/08 08:59:30;;;;;;;;;;;;;;;21.78;56.90;101190.91;5013362;28;2717;-63
2022/10/08 09:02:00;;;;;;;;;;;;;;;21.78;56.75;101193.78;5014200;28;2947;-63
2022/10/08 09:04:30;;;;;;;;;;;;;;;21.77;56.95;101188.69;5031796;28;1659;-63
2022/10/08 09:06:56;;;;;;;;;;;;;;;21.79;56.96;101203.19;5019548;28;1760;-62
2022/10/08 09:09:42;;;;;;;;;;;;;;;21.80;56.98;101204.66;5000462;28;2852;-63
2022/10/08 09:12:11;;;;;;;;;;;;;;;21.81;56.83;101209.78;5016083;28;2891;-63
2022/10/08 09:14:41;;;;;;;;;;;;;;;21.79;56.92;101215.47;5021322;28;1853;-63
2022/10/08 09:17:17;;;;;;;;;;;;;;;21.81;56.99;101211.94;5008003;28;3603;-62
2022/10/08 09:19:44;;;;;;;;;;;;;;;21.82;56.70;101211.25;5015141;28;2915;-62
2022/10/08 09:22:16;;;;;;;;;;;;;;;21.82;56.98;101204.75;5011650;28;2168;-63
2022/10/08 09:24:43;;;;;;;;;;;;;;;21.83;57.06;101209.13;5012047;28;2994;-63
2022/10/08 09:27:12;;;;;;;;;;;;;;;21.82;57.04;101202.63;5013402;28;3166;-63
2022/10/08 09:29:38;;;;;;;;;;;;;;;21.82;56.97;101208.38;5023160;28;2869;-64
2022/10/08 09:32:06;;;;;;;;;;;;;;;21.83;57.05;101212.00;5012760;28;2630;-63
2022/10/08 09:34:32;;;;;;;;;;;;;;;21.83;56.74;101212.00;5024281;28;2782;-64
2022/10/08 09:37:02;;;;;;;;;;;;;;;21.84;57.03;101216.38;5015464;28;2776;-63
2022/10/08 09:39:33;;;;;;;;;;;;;;;21.83;57.19;101221.41;5016389;28;2502;-64
2022/10/08 09:42:02;;;;;;;;;;;;;;;21.83;56.96;101220.66;5012933;28;3093;-63
2022/10/08 09:44:37;;;;;;;;;;;;;;;21.84;57.05;101227.91;5010416;28;3525;-63
2022/10/08 09:47:04;;;;;;;;;;;;;;;21.84;56.76;101222.16;5010803;28;2935;-63
2022/10/08 09:49:31;;;;;;;;;;;;;;;21.84;57.20;101225.78;5010397;28;2912;-63
2022/10/08 09:52:01;;;;;;;;;;;;;;;21.84;57.08;101237.31;5008239;28;3350;-64
2022/10/08 09:54:28;;;;;;;;;;;;;;;21.86;56.89;101236.66;5012179;28;2633;-64
2022/10/08 09:56:55;;;;;;;;;;;;;;;21.85;57.11;101233.03;5010891;28;2796;-64
2022/10/08 09:59:22;;;;;;;;;;;;;;;21.84;57.25;101233.69;5015624;28;3287;-64
2022/10/08 10:01:49;;;;;;;;;;;;;;;21.84;57.04;101239.44;5015520;28;3062;-64
2022/10/08 10:04:17;;;;;;;;;;;;;;;21.83;57.36;101238.72;5007906;28;2909;-63
2022/10/08 10:06:44;;;;;;;;;;;;;;;21.84;57.32;101240.19;5022100;28;2157;-63
2022/10/08 10:09:23;;;;;;;;;;;;;;;21.84;57.26;101245.22;5010021;28;2899;-64
2022/10/08 10:11:50;;;;;;;;;;;;;;;21.83;57.32;101240.84;5003125;28;3440;-64
2022/10/08 10:14:20;;;;;;;;;;;;;;;21.83;57.46;101247.38;5018959;28;2874;-64
2022/10/08 10:16:47;;;;;;;;;;;;;;;21.84;57.20;101248.09;5015323;28;2904;-64
2022/10/08 10:19:15;;;;;;;;;;;;;;;21.83;57.35;101249.47;5011029;28;3094;-64
2022/10/08 10:21:44;;;;;;;;;;;;;;;21.83;57.10;101243.72;5015535;28;1679;-64
2022/10/08 10:24:20;;;;;;;;;;;;;;;21.85;57.40;101258.22;5013874;28;2845;-64
2022/10/08 10:26:47;;;;;;;;;;;;;;;21.83;57.26;101246.59;5011973;28;2792;-64
2022/10/08 10:29:15;;;;;;;;;;;;;;;21.82;57.30;101245.13;5015144;28;2697;-64
2022/10/08 10:31:46;;;;;;;;;;;;;;;21.82;57.55;101240.09;5023524;28;3346;-64
2022/10/08 10:34:13;;;;;;;;;;;;;;;21.80;57.54;101245.03;5031252;28;2898;-64
2022/10/08 10:36:44;;;;;;;;;;;;;;;21.79;57.46;101246.44;5012026;28;2850;-64
2022/10/08 10:39:29;;;;;;;;;;;;;;;21.80;57.61;101256.56;5016188;28;1846;-63
2022/10/08 10:42:02;;;;;;;;;;;;;;;21.79;57.65;101255.06;5014780;28;2919;-63
2022/10/08 10:44:47;;;;;;;;;;;;;;;21.74;57.71;101249.13;5010701;28;2986;-64
2022/10/08 10:47:13;;;;;;;;;;;;;;;21.79;57.70;101257.97;4997930;28;3425;-63
2022/10/08 10:49:40;;;;;;;;;;;;;;;21.78;57.59;101250.69;5008203;28;3243;-63
2022/10/08 10:52:15;;;;;;;;;;;;;;;21.75;57.75;101262.13;5004617;28;3485;-64
2022/10/08 10:54:52;;;;;;;;;;;;;;;21.77;57.76;101255.72;5011441;28;2839;-63
2022/10/08 10:57:37;;;;;;;;;;;;;;;21.75;57.56;101252.75;5008921;28;2761;-63
2022/10/08 11:00:04;;;;;;;;;;;;;;;21.74;57.75;101249.13;5002566;28;3263;-63
2022/10/08 11:02:39;;;;;;;;;;;;;;;21.78;57.72;101259.34;5009421;28;2965;-64
2022/10/08 11:05:12;;;;;;;;;;;;;;;21.80;57.64;101247.91;5010854;28;2843;-63
2022/10/08 11:07:57;;;;;;;;;;;;;;;21.77;57.79;101258.59;5015500;28;1652;-63
2022/10/08 11:10:28;;;;;;;;;;;;;;;21.80;57.46;101263.06;5009389;28;2902;-64
2022/10/08 11:12:57;;;;;;;;;;;;;;;21.78;57.58;101259.34;5014819;28;2625;-64
2022/10/08 11:15:23;;;;;;;;;;;;;;;21.78;57.72;101273.75;5013017;28;2898;-64
2022/10/08 11:17:54;;;;;;;;;;;;;;;21.79;57.26;101267.34;5012751;28;1681;-64
2022/10/08 11:20:43;;;;;;;;;;;;;;;21.76;57.77;101268.63;4996204;28;3510;-64
2022/10/08 11:23:20;;;;;;;;;;;;;;;21.74;57.56;101277.22;5001293;28;3435;-64
2022/10/08 11:26:04;;;;;;;;;;;;;;;21.78;57.67;101276.63;5008925;28;2767;-64
2022/10/08 11:29:00;;;;;;;;;;;;;;;21.79;58.18;101267.34;5013934;28;2942;-64
2022/10/08 11:31:34;;;;;;;;;;;;;;;21.79;58.28;101272.38;5015820;28;2946;-64
2022/10/08 11:34:02;;;;;;;;;;;;;;;21.78;58.67;101276.63;5014243;28;1630;-64
2022/10/08 11:36:36;;;;;;;;;;;;;;;21.79;58.48;101272.38;5010957;28;2751;-64
2022/10/08 11:39:18;;;;;;;;;;;;;;;21.80;58.38;101279.63;5014700;28;2840;-62
2022/10/08 11:41:53;;;;;;;;;;;;;;;21.79;58.14;101278.88;5002677;28;3359;-63
2022/10/08 11:44:20;;;;;;;;;;;;;;;21.79;58.09;101269.50;5013882;28;2918;-63
2022/10/08 11:46:46;;;;;;;;;;;;;;;21.81;58.15;101264.56;5020803;28;1567;-64
2022/10/08 11:49:13;;;;;;;;;;;;;;;21.80;58.10;101268.09;5009028;28;2723;-63
2022/10/08 11:51:39;;;;;;;;;;;;;;;21.83;58.01;101273.31;5009424;28;3051;-67
2022/10/08 11:54:11;;;;;;;;;;;;;;;21.65;57.56;101270.31;5003309;28;3065;-63
2022/10/08 11:56:38;;;;;;;;;;;;;;;21.74;57.40;101254.88;4999581;28;2949;-62
2022/10/08 11:59:06;;;;;;;;;;;;;;;21.82;57.67;101262.41;5021097;28;2872;-66
2022/10/08 12:01:32;;;;;;;;;;;;;;;21.92;57.62;101263.66;5006460;28;2824;-62
2022/10/08 12:04:03;;;;;;;;;;;;;;;21.94;57.70;101277.38;5006975;28;2876;-63
2022/10/08 12:06:32;;;;;;;;;;;;;;;21.88;57.66;101251.91;5005694;28;2978;-62
2022/10/08 12:09:01;;;;;;;;;;;;;;;21.93;57.67;101255.72;5009412;28;2806;-63
2022/10/08 12:11:30;;;;;;;;;;;;;;;21.96;57.37;101258.03;5010805;28;2867;-64
2022/10/08 12:14:09;;;;;;;;;;;;;;;21.95;57.36;101262.34;5009081;28;2941;-64
2022/10/08 12:16:48;;;;;;;;;;;;;;;21.95;57.68;101255.81;5010520;28;3142;-63
2022/10/08 12:19:32;;;;;;;;;;;;;;;21.95;57.59;101267.38;5012657;28;2953;-64
2022/10/08 12:22:00;;;;;;;;;;;;;;;21.96;57.61;101263.06;5003090;28;3004;-59
2022/10/08 12:24:35;;;;;;;;;;;;;;;21.95;57.55;101262.34;5011706;28;3201;-60
2022/10/08 12:27:17;;;;;;;;;;;;;;;21.95;57.90;101265.22;5014578;28;2618;-60
2022/10/08 12:29:59;;;;;;;;;;;;;;;21.84;57.71;101266.13;5007693;28;3059;-60
2022/10/08 12:32:26;;;;;;;;;;;;;;;21.92;57.98;101268.66;5010405;28;2891;-60
2022/10/08 12:34:52;;;;;;;;;;;;;;;21.94;58.29;101266.63;5009589;28;2875;-58
2022/10/08 12:37:35;;;;;;;;;;;;;;;21.90;58.28;101277.22;5020852;28;2927;-66
2022/10/08 12:40:02;;;;;;;;;;;;;;;21.64;54.87;101273.81;5022716;28;3351;-66
2022/10/08 12:42:31;;;;;;;;;;;;;;;21.49;55.06;101276.03;5009136;28;2703;-64
2022/10/08 12:45:13;;;;;;;;;;;;;;;21.67;55.07;101279.06;5028267;28;2972;-65
2022/10/08 12:47:46;;;;;;;;;;;;;;;21.77;55.07;101275.91;5007974;28;3343;-65
2022/10/08 12:50:19;;;;;;;;;;;;;;;21.80;56.21;101277.47;5015473;28;2842;-65
2022/10/08 12:52:45;;;;;;;;;;;;;;;21.84;56.41;101265.41;5008293;28;2965;-65
2022/10/08 12:55:14;;;;;;;;;;;;;;;21.84;56.60;101269.03;5010895;28;2797;-65
2022/10/08 12:57:40;;;;;;;;;;;;;;;21.88;56.67;101268.47;5010207;28;2787;-65
2022/10/08 13:00:18;;;;;;;;;;;;;;;21.92;56.46;101274.41;5008049;28;2832;-65